Mabou, Canada
Current Conditions -  °F | °C
As of 10:30 AM on Monday 20 Oct 2014 (Local Time) from CYPD Reporting Station
Light Rain Light Rain  
Wind Chill: 32°   Ceiling: 900
Heat Index: 41°   Visibility: 6mi
Dew Point: 39°   Wind: 17mph
Humidity: 93%   Direction: 260°W
Pressure: 29.63"   Gusts: 28mph
Location:  46.07°N, 61.37°W
Report Text: CYPD 201330Z AUTO 26015G24KT 6SM -RA BR BKN009 OVC013 05/04 A2963 RMK SLP038
Loading
Personal Weather Stations






























Interactive Weather Map
Tropical Storm Tracking
New forecast layout! Learn more

10-Day Weather Forecast

Advertisements
Track Severe Weather on mobile